Time;durP1;ratioP1;P1;durP2;ratioP2;P2;SDS_P1;SDS_P2;PMS_P1;PMS_P2;Temp;Humidity;BMP_temperature;BMP_pressure;BME280_temperature;BME280_humidity;BME280_pressure;Samples;Min_cycle;Max_cycle;Signal;HPM_P1;HPM_P2
2022/03/09 00:04:43;;;;;;;30.13;14.23;;;;;;;-0.26;82.09;101412.72;3586420;80;98790;-87
2022/03/09 00:09:44;;;;;;;41.03;17.10;;;;;;;-0.28;82.13;101407.33;3593883;79;99081;-87
2022/03/09 00:14:45;;;;;;;35.27;15.67;;;;;;;-0.29;82.02;101406.50;3577620;80;99076;-88
2022/03/09 00:19:46;;;;;;;33.87;14.53;;;;;;;-0.34;81.88;101407.10;3582039;80;98988;-88
2022/03/09 00:24:47;;;;;;;30.40;14.23;;;;;;;-0.53;81.84;101405.59;3569777;80;99095;-88
2022/03/09 00:29:48;;;;;;;34.83;14.40;;;;;;;-0.64;82.02;101406.75;3589137;80;32460;-88
2022/03/09 00:34:49;;;;;;;37.93;16.70;;;;;;;-0.81;82.26;101400.90;3571028;79;98786;-88
2022/03/09 00:39:49;;;;;;;36.83;16.07;;;;;;;-0.90;82.62;101397.15;3581328;80;98981;-87
2022/03/09 00:44:51;;;;;;;36.37;16.43;;;;;;;-0.92;82.86;101385.83;3574954;80;99780;-88
2022/03/09 00:49:51;;;;;;;41.67;17.37;;;;;;;-0.94;82.84;101396.64;3583450;79;99261;-83
2022/03/09 00:54:52;;;;;;;35.87;14.63;;;;;;;-1.07;83.01;101398.04;3601345;80;99086;-92
2022/03/09 00:59:53;;;;;;;32.35;14.00;;;;;;;-1.17;83.09;101395.38;3592078;80;98767;-92
2022/03/09 01:04:54;;;;;;;36.17;16.07;;;;;;;-1.20;83.36;101394.56;3611127;80;98965;-92
2022/03/09 01:09:55;;;;;;;34.40;14.37;;;;;;;-1.24;83.53;101393.52;3618830;80;99421;-96
2022/03/09 01:14:57;;;;;;;32.35;14.40;;;;;;;-1.33;83.41;101398.39;3607250;80;99171;-92
2022/03/09 01:19:58;;;;;;;35.77;15.17;;;;;;;-1.41;83.91;101405.72;3606854;80;99325;-91
2022/03/09 01:25:00;;;;;;;30.93;14.20;;;;;;;-1.42;84.04;101400.05;3620160;80;99545;-91
2022/03/09 01:30:01;;;;;;;32.53;15.00;;;;;;;-1.45;84.20;101404.11;3604568;80;99104;-91
2022/03/09 01:35:02;;;;;;;30.37;14.00;;;;;;;-1.51;84.25;101398.98;3542027;81;99096;-91
2022/03/09 01:40:04;;;;;;;30.73;13.40;;;;;;;-1.58;84.16;101397.91;3532905;81;99613;-91
2022/03/09 01:45:09;;;;;;;30.07;12.77;;;;;;;-1.63;84.28;101406.05;3500113;83;99576;-92
2022/03/09 01:50:10;;;;;;;34.97;15.53;;;;;;;-1.68;84.55;101389.86;3597803;80;99293;-93
2022/03/09 01:55:12;;;;;;;39.70;15.47;;;;;;;-1.73;84.74;101391.75;3608829;80;99179;-91
2022/03/09 02:00:13;;;;;;;31.80;14.05;;;;;;;-1.80;84.62;101390.67;3592366;80;99093;-92
2022/03/09 02:05:15;;;;;;;36.77;14.93;;;;;;;-1.83;84.63;101403.90;3605285;80;27599;-92
2022/03/09 02:10:16;;;;;;;35.37;14.70;;;;;;;-1.87;84.96;101405.55;3492886;82;99053;-92
2022/03/09 02:15:18;;;;;;;34.60;15.00;;;;;;;-1.91;85.00;101403.11;3591398;80;99551;-93
2022/03/09 02:20:19;;;;;;;33.83;15.05;;;;;;;-1.97;85.01;101404.98;3489898;82;99194;-93
2022/03/09 02:25:20;;;;;;;35.63;15.37;;;;;;;-2.01;85.03;101401.23;3508382;82;99295;-93
2022/03/09 02:30:21;;;;;;;36.23;16.23;;;;;;;-2.05;84.97;101396.63;3599642;80;99179;-92
2022/03/09 02:35:22;;;;;;;36.05;16.30;;;;;;;-2.08;85.02;101395.84;3531645;81;25808;-92
2022/03/09 02:40:23;;;;;;;37.23;15.63;;;;;;;-2.12;85.36;101388.01;3620774;80;99170;-91
2022/03/09 02:45:24;;;;;;;38.58;18.00;;;;;;;-2.17;85.35;101393.40;3460319;83;99233;-91
2022/03/09 02:50:25;;;;;;;38.27;17.03;;;;;;;-2.22;85.41;101393.39;3536309;81;99259;-90
2022/03/09 02:55:26;;;;;;;41.00;18.10;;;;;;;-2.24;85.47;101395.56;3491781;82;99320;-90
2022/03/09 03:00:27;;;;;;;40.70;19.33;;;;;;;-2.30;85.28;101389.90;3511200;82;99398;-90
2022/03/09 03:05:28;;;;;;;48.33;22.83;;;;;;;-2.33;85.31;101391.25;3461799;81;26443;-89
2022/03/09 03:10:29;;;;;;;44.20;20.67;;;;;;;-2.37;85.43;101394.20;3492073;82;99037;-89
2022/03/09 03:15:30;;;;;;;46.90;21.47;;;;;;;-2.40;85.49;101391.23;3491550;82;99169;-89
2022/03/09 03:20:31;;;;;;;48.47;22.50;;;;;;;-2.46;85.55;101385.57;3469621;82;99356;-88
2022/03/09 03:25:32;;;;;;;55.30;24.50;;;;;;;-2.50;85.47;101380.44;3508173;81;99191;-88
2022/03/09 03:30:33;;;;;;;57.37;26.50;;;;;;;-2.54;85.62;101381.52;3503000;82;99565;-88
2022/03/09 03:35:33;;;;;;;57.93;26.43;;;;;;;-2.57;86.09;101384.73;3491392;82;33337;-88
2022/03/09 03:40:35;;;;;;;57.63;25.93;;;;;;;-2.58;86.14;101383.67;3495235;82;99395;-88
2022/03/09 03:45:36;;;;;;;54.60;26.83;;;;;;;-2.64;86.08;101391.45;3479802;82;99121;-88
2022/03/09 03:50:37;;;;;;;55.43;25.68;;;;;;;-2.68;86.53;101399.81;3482777;82;99216;-87
2022/03/09 03:55:37;;;;;;;47.83;21.33;;;;;;;-2.71;86.77;101401.16;3480039;82;99152;-88
2022/03/09 04:00:38;;;;;;;42.40;19.07;;;;;;;-2.74;87.02;101396.28;3492360;82;99208;-87
2022/03/09 04:05:39;;;;;;;45.03;17.97;;;;;;;-2.72;87.04;101400.06;3468643;84;27516;-87
2022/03/09 04:10:40;;;;;;;44.90;20.60;;;;;;;-2.73;87.09;101408.67;3488771;82;99152;-87
2022/03/09 04:15:41;;;;;;;39.90;18.20;;;;;;;-2.74;87.02;101407.06;3467607;84;99543;-86
2022/03/09 04:20:42;;;;;;;46.98;18.62;;;;;;;-2.74;86.89;101404.36;3489800;82;99593;-87
2022/03/09 04:25:43;;;;;;;40.73;17.50;;;;;;;-2.74;86.98;101406.27;3449775;82;99190;-86
2022/03/09 04:30:44;;;;;;;42.57;18.43;;;;;;;-2.81;87.23;101409.20;3595490;80;99325;-86
2022/03/09 04:35:45;;;;;;;38.40;17.77;;;;;;;-2.83;87.34;101411.89;3599488;81;31781;-87
2022/03/09 04:40:46;;;;;;;42.63;18.37;;;;;;;-2.87;87.18;101420.22;3603020;79;99391;-87
2022/03/09 04:45:46;;;;;;;39.13;17.70;;;;;;;-2.92;87.66;101420.20;3603821;80;98224;-86
2022/03/09 04:50:47;;;;;;;42.43;17.93;;;;;;;-2.96;87.67;101411.84;3594541;80;99290;-87
2022/03/09 04:55:48;;;;;;;42.03;19.37;;;;;;;-2.99;87.78;101414.26;3597816;80;99134;-87
2022/03/09 05:00:49;;;;;;;38.40;16.32;;;;;;;-2.99;87.79;101415.08;3588299;79;99186;-86
2022/03/09 05:05:50;;;;;;;33.17;14.70;;;;;;;-3.01;87.54;101415.86;3609474;80;34775;-86
2022/03/09 05:10:51;;;;;;;36.57;15.90;;;;;;;-3.03;87.67;101426.62;3611040;80;99475;-87
2022/03/09 05:15:52;;;;;;;34.50;16.10;;;;;;;-3.04;87.63;101430.39;3612754;80;98982;-86
2022/03/09 05:20:53;;;;;;;36.93;15.60;;;;;;;-3.05;87.56;101436.33;3448960;83;99571;-87
2022/03/09 05:25:54;;;;;;;31.73;14.27;;;;;;;-3.08;87.65;101444.09;3507666;82;99124;-87
2022/03/09 05:30:55;;;;;;;38.40;15.27;;;;;;;-3.08;87.43;101447.61;3465840;83;99134;-87
2022/03/09 05:35:56;;;;;;;35.40;13.80;;;;;;;-3.09;87.62;101452.73;3511735;82;34842;-88
2022/03/09 05:40:57;;;;;;;33.83;13.90;;;;;;;-3.12;87.66;101457.83;3500404;82;99168;-88
2022/03/09 05:45:58;;;;;;;31.37;13.80;;;;;;;-3.14;87.69;101454.57;3512513;82;99076;-87
2022/03/09 05:50:58;;;;;;;30.82;14.93;;;;;;;-3.16;87.69;101455.38;3494370;82;99497;-87
2022/03/09 05:55:59;;;;;;;32.80;14.47;;;;;;;-3.16;87.71;101454.03;3504407;82;99614;-88
2022/03/09 06:01:01;;;;;;;32.40;15.27;;;;;;;-3.16;88.08;101444.05;3501072;82;99350;-88
2022/03/09 06:06:02;;;;;;;31.13;13.73;;;;;;;-3.17;88.78;101449.17;3563526;81;32452;-88
2022/03/09 06:11:03;;;;;;;32.73;14.50;;;;;;;-3.18;88.69;101444.08;3554553;81;98964;-88
2022/03/09 06:16:04;;;;;;;30.00;13.03;;;;;;;-3.16;88.91;101446.75;3567749;81;98990;-89
2022/03/09 06:21:05;;;;;;;27.47;13.10;;;;;;;-3.13;89.56;101448.94;3552208;81;99115;-89
2022/03/09 06:26:07;;;;;;;33.70;14.03;;;;;;;-3.08;89.87;101448.95;3566472;80;99203;-87
2022/03/09 06:31:08;;;;;;;28.40;14.10;;;;;;;-3.01;91.36;101445.48;3546326;81;99238;-89
2022/03/09 06:36:09;;;;;;;31.77;15.07;;;;;;;-2.91;91.44;101448.22;3561346;81;32485;-90
2022/03/09 06:41:10;;;;;;;32.10;15.63;;;;;;;-2.84;92.16;101442.59;3549359;80;99168;-90
2022/03/09 06:46:11;;;;;;;31.80;14.13;;;;;;;-2.71;92.41;101444.26;3563173;81;99105;-91
2022/03/09 06:51:12;;;;;;;30.87;14.10;;;;;;;-2.51;94.15;101451.03;3527998;81;99313;-90
2022/03/09 06:56:13;;;;;;;30.67;16.07;;;;;;;-2.24;94.20;101444.88;3558782;81;99321;-90
2022/03/09 07:01:14;;;;;;;31.63;13.80;;;;;;;-2.03;94.46;101443.83;3561036;81;99500;-88
2022/03/09 07:06:15;;;;;;;30.43;14.85;;;;;;;-1.78;94.72;101441.67;3462076;82;99135;-88
2022/03/09 07:11:16;;;;;;;35.23;15.63;;;;;;;-1.55;95.19;101449.20;3477287;83;99280;-88
2022/03/09 07:16:17;;;;;;;43.03;21.30;;;;;;;-1.31;94.95;101438.09;3483484;83;98746;-87
2022/03/09 07:21:18;;;;;;;44.23;19.13;;;;;;;-1.06;95.21;101438.00;3480129;83;99097;-88
2022/03/09 07:26:19;;;;;;;32.73;16.40;;;;;;;-0.82;95.45;101440.35;3488609;83;99129;-88
2022/03/09 07:31:20;;;;;;;37.47;16.53;;;;;;;-0.57;95.62;101449.67;3477290;83;98981;-87
2022/03/09 07:36:21;;;;;;;34.57;17.97;;;;;;;-0.31;95.41;101450.62;3486755;83;99273;-89
2022/03/09 07:41:22;;;;;;;34.90;17.63;;;;;;;-0.10;95.35;101451.54;3464990;83;99270;-90
2022/03/09 07:46:23;;;;;;;33.33;16.63;;;;;;;0.06;95.10;101451.69;3475574;83;98802;-90
2022/03/09 07:51:24;;;;;;;35.20;17.53;;;;;;;0.29;95.04;101451.52;3467439;82;98800;-90
2022/03/09 07:56:25;;;;;;;33.80;15.37;;;;;;;0.55;94.85;101458.32;3478160;83;98691;-90
2022/03/09 08:01:26;;;;;;;36.67;16.07;;;;;;;0.74;94.65;101462.73;3464689;83;98892;-88
2022/03/09 08:06:27;;;;;;;34.03;16.27;;;;;;;0.95;94.40;101465.48;3439316;83;99115;-89
2022/03/09 08:11:28;;;;;;;34.87;17.53;;;;;;;1.18;94.54;101455.70;3423489;84;98627;-85
2022/03/09 08:16:28;;;;;;;32.53;16.20;;;;;;;1.61;93.26;101460.84;3433391;84;97891;-89
2022/03/09 08:21:30;;;;;;;34.97;16.33;;;;;;;1.61;93.26;101460.84;3455828;83;98867;-86
2022/03/09 08:26:31;;;;;;;34.83;15.77;;;;;;;1.84;92.91;101453.17;3447339;84;97932;-86
2022/03/09 08:31:32;;;;;;;34.23;16.83;;;;;;;2.12;92.45;101460.34;3434428;83;98981;-88
2022/03/09 08:36:33;;;;;;;32.13;14.83;;;;;;;2.42;91.99;101461.75;3427397;84;99321;-86
2022/03/09 08:41:36;;;;;;;32.30;15.00;;;;;;;2.68;91.37;101468.36;3432414;84;98500;-86
2022/03/09 08:46:37;;;;;;;36.27;16.27;;;;;;;2.96;91.52;101468.64;3428567;83;98670;-85
2022/03/09 08:51:37;;;;;;;29.27;14.13;;;;;;;3.24;91.43;101475.70;3428130;84;99354;-86
2022/03/09 08:56:39;;;;;;;29.93;15.00;;;;;;;3.55;90.19;101471.25;3403673;84;99303;-87
2022/03/09 09:01:40;;;;;;;26.63;14.00;;;;;;;3.83;90.42;101472.22;3435219;84;98907;-86
2022/03/09 09:06:41;;;;;;;32.67;15.93;;;;;;;4.24;90.58;101474.80;3464016;82;98928;-86
2022/03/09 09:11:43;;;;;;;32.38;15.20;;;;;;;4.76;90.46;101472.09;3477951;82;98568;-86
2022/03/09 09:16:45;;;;;;;31.20;18.27;;;;;;;5.44;89.36;101474.30;3482717;82;97940;-87
2022/03/09 09:21:47;;;;;;;29.57;15.47;;;;;;;6.46;88.50;101472.48;3452423;82;99261;-87
2022/03/09 09:26:48;;;;;;;28.00;14.77;;;;;;;7.46;87.51;101476.28;3486173;82;98891;-87
2022/03/09 09:31:49;;;;;;;30.90;17.83;;;;;;;8.28;84.07;101477.19;3487753;82;98975;-87
2022/03/09 09:36:52;;;;;;;32.60;17.80;;;;;;;9.25;84.17;101468.61;3485491;82;99009;-87
2022/03/09 09:41:54;;;;;;;28.07;15.17;;;;;;;10.15;81.74;101462.45;3478541;82;98892;-84
2022/03/09 09:46:55;;;;;;;25.67;15.23;;;;;;;10.97;78.01;101469.84;3477407;82;98991;-86
2022/03/09 09:51:59;;;;;;;25.97;14.45;;;;;;;11.44;76.53;101455.48;3461945;82;98996;-84
2022/03/09 09:57:01;;;;;;;25.77;15.30;;;;;;;12.26;72.98;101464.45;3485024;82;99619;-86
2022/03/09 10:02:05;;;;;;;24.80;13.60;;;;;;;12.85;71.97;101466.19;3470714;82;99304;-86
2022/03/09 10:07:07;;;;;;;18.45;10.93;;;;;;;13.04;67.81;101468.34;3466009;82;99651;-86
2022/03/09 10:12:12;;;;;;;28.00;13.32;;;;;;;13.59;65.65;101468.27;3430131;83;98947;-86
2022/03/09 10:17:18;;;;;;;24.20;14.20;;;;;;;13.91;65.52;101463.41;3482306;82;98794;-85
2022/03/09 10:22:35;;;;;;;22.20;12.67;;;;;;;14.42;63.16;101476.98;3472650;83;98853;-85
2022/03/09 10:27:55;;;;;;;24.40;13.33;;;;;;;14.99;61.97;101485.34;3438241;84;99096;-86
2022/03/09 10:32:59;;;;;;;23.25;13.38;;;;;;;15.14;57.99;101475.38;3465505;84;99750;-85
2022/03/09 10:38:19;;;;;;;23.10;13.72;;;;;;;15.34;58.37;101478.75;3458221;83;99302;-85
2022/03/09 10:43:28;;;;;;;24.27;13.53;;;;;;;15.40;56.61;101475.25;3462118;84;99525;-86
2022/03/09 10:48:57;;;;;;;21.03;11.23;;;;;;;15.37;55.63;101479.39;3467005;83;99276;-85
2022/03/09 10:54:04;;;;;;;23.20;12.88;;;;;;;14.98;50.60;101476.82;3472188;83;98720;-85
2022/03/09 10:59:19;;;;;;;21.30;10.72;;;;;;;14.98;53.82;101460.19;3479673;83;99046;-85
2022/03/09 11:04:20;;;;;;;16.45;9.58;;;;;;;15.29;52.23;101457.69;3478800;82;98999;-85
2022/03/09 11:09:21;;;;;;;20.37;10.53;;;;;;;15.36;51.58;101461.16;3473623;83;99064;-84
2022/03/09 11:14:26;;;;;;;16.93;9.40;;;;;;;15.48;49.98;101458.07;3465312;83;99609;-84
2022/03/09 11:19:27;;;;;;;16.12;8.30;;;;;;;15.39;48.81;101452.86;3460606;83;99673;-85
2022/03/09 11:24:31;;;;;;;15.23;7.70;;;;;;;15.51;48.51;101463.64;3475145;83;98977;-86
2022/03/09 11:29:36;;;;;;;14.80;7.25;;;;;;;15.38;47.68;101456.78;3461520;83;25992;-85
2022/03/09 11:34:42;;;;;;;15.23;7.37;;;;;;;15.00;45.12;101455.83;3448608;83;99192;-89
2022/03/09 11:39:55;;;;;;;16.17;7.28;;;;;;;14.60;45.43;101461.97;3454455;82;98829;-87
2022/03/09 11:45:27;;;;;;;11.43;5.37;;;;;;;14.33;46.35;101456.30;3434192;83;99042;-90
2022/03/09 11:50:21;;;;;;;12.35;6.35;;;;;;;14.04;44.10;101463.41;3445730;83;99079;-92
2022/03/09 11:55:22;;;;;;;9.03;4.57;;;;;;;13.55;42.30;101459.12;3451407;82;99107;-87
2022/03/09 12:00:23;;;;;;;10.60;4.47;;;;;;;13.26;44.78;101463.42;3456794;82;98898;-87
2022/03/09 12:05:34;;;;;;;12.10;4.77;;;;;;;13.25;44.95;101456.27;3464226;83;33338;-89
2022/03/09 12:10:45;;;;;;;11.88;5.45;;;;;;;13.17;44.78;101460.67;3448753;83;99422;-88
2022/03/09 12:16:02;;;;;;;13.83;7.17;;;;;;;12.82;45.51;101462.79;3463305;83;98965;-87
2022/03/09 12:21:05;;;;;;;13.10;6.63;;;;;;;12.80;46.38;101472.81;3453449;81;99670;-87
2022/03/09 12:26:07;;;;;;;17.10;6.60;;;;;;;12.78;46.45;101471.59;3453424;83;99057;-87
2022/03/09 12:31:16;;;;;;;16.17;7.12;;;;;;;12.43;46.64;101478.59;3449405;82;99014;-87
2022/03/09 12:36:25;;;;;;;16.63;6.63;;;;;;;12.32;47.18;101471.28;3488146;83;43140;-86
2022/03/09 12:41:50;;;;;;;14.20;6.40;;;;;;;12.37;47.84;101473.16;3453952;83;99550;-89
2022/03/09 12:46:53;;;;;;;13.15;5.75;;;;;;;12.32;47.45;101467.14;3448141;83;98793;-86
2022/03/09 12:51:59;;;;;;;15.10;6.33;;;;;;;12.10;47.81;101460.95;3459059;82;99202;-87
2022/03/09 12:57:13;;;;;;;14.98;7.28;;;;;;;11.81;48.12;101465.05;3454228;83;99058;-86
2022/03/09 13:02:14;;;;;;;12.33;6.25;;;;;;;11.62;48.44;101469.12;3460546;83;99064;-88
2022/03/09 13:07:15;;;;;;;16.77;8.47;;;;;;;11.50;49.10;101457.40;3434458;83;98971;-87
2022/03/09 13:12:16;;;;;;;16.87;7.63;;;;;;;11.46;48.66;101462.02;3429722;84;99133;-87
2022/03/09 13:17:19;;;;;;;20.13;8.83;;;;;;;11.22;48.82;101458.88;3397092;85;98937;-86
2022/03/09 13:22:23;;;;;;;18.40;8.87;;;;;;;11.11;49.96;101451.49;3423295;84;98862;-89
2022/03/09 13:27:26;;;;;;;19.65;10.03;;;;;;;11.15;50.08;101454.58;3415440;84;99129;-88
2022/03/09 13:32:33;;;;;;;20.92;10.68;;;;;;;11.09;50.71;101457.95;3421604;84;99656;-87
2022/03/09 13:37:39;;;;;;;18.07;8.23;;;;;;;10.83;50.97;101457.09;3426070;84;99706;-89
2022/03/09 13:42:44;;;;;;;17.82;9.00;;;;;;;10.75;51.00;101449.78;3523241;81;99120;-88
2022/03/09 13:47:53;;;;;;;15.53;7.60;;;;;;;10.64;51.20;101445.16;3524134;81;25990;-87
2022/03/09 13:53:10;;;;;;;16.37;8.03;;;;;;;10.49;51.28;101434.91;3539329;81;99117;-88
2022/03/09 13:58:15;;;;;;;18.55;8.20;;;;;;;10.33;51.63;101428.00;3529782;81;99207;-88
2022/03/09 14:03:20;;;;;;;17.12;7.75;;;;;;;10.40;52.38;101434.26;3517051;81;99080;-87
2022/03/09 14:08:33;;;;;;;18.73;8.63;;;;;;;10.31;52.03;101440.52;3431658;83;99201;-88
2022/03/09 14:13:38;;;;;;;18.82;9.03;;;;;;;10.09;52.01;101437.70;3500818;82;99022;-87
2022/03/09 14:18:41;;;;;;;14.47;6.83;;;;;;;9.71;51.80;101420.83;3417914;84;98796;-87
2022/03/09 14:23:42;;;;;;;17.80;7.53;;;;;;;9.75;52.92;101427.84;3466208;83;98283;-89
2022/03/09 14:28:43;;;;;;;19.20;8.87;;;;;;;9.66;52.49;101429.31;3470733;82;98381;-87
2022/03/09 14:33:44;;;;;;;15.47;7.23;;;;;;;9.63;53.44;101434.14;3464157;82;98718;-87
2022/03/09 14:38:45;;;;;;;14.67;6.80;;;;;;;9.50;53.25;101435.88;3428190;82;98805;-88
2022/03/09 14:43:48;;;;;;;12.60;5.60;;;;;;;9.40;53.39;101439.91;3432260;83;99306;-87
2022/03/09 14:48:50;;;;;;;14.27;5.83;;;;;;;9.29;53.20;101437.95;3442767;82;98667;-90
2022/03/09 14:53:51;;;;;;;16.10;6.70;;;;;;;9.12;54.03;101441.73;3424197;83;98626;-91
2022/03/09 14:58:53;;;;;;;17.23;7.40;;;;;;;8.96;53.29;101443.55;3447985;83;98492;-89
2022/03/09 15:03:57;;;;;;;21.23;9.63;;;;;;;8.75;52.88;101443.38;3452271;83;99111;-89
2022/03/09 15:09:00;;;;;;;21.30;9.93;;;;;;;8.56;53.85;101449.39;3434934;83;98849;-88
2022/03/09 15:14:02;;;;;;;19.73;9.25;;;;;;;8.52;54.77;101459.47;3482477;82;98878;-88
2022/03/09 15:19:08;;;;;;;17.70;9.00;;;;;;;8.38;54.45;101460.87;3465269;83;98616;-92
2022/03/09 15:24:09;;;;;;;21.30;10.10;;;;;;;8.26;55.25;101467.69;3453719;83;98552;-88
2022/03/09 15:29:11;;;;;;;18.53;9.47;;;;;;;8.16;56.23;101472.98;3479498;83;97897;-89
2022/03/09 15:34:13;;;;;;;19.00;10.43;;;;;;;8.16;56.03;101481.77;3475636;83;98913;-90
2022/03/09 15:39:14;;;;;;;19.90;8.90;;;;;;;8.04;55.73;101474.86;3466235;83;99001;-88
2022/03/09 15:44:15;;;;;;;21.82;9.08;;;;;;;7.94;56.09;101481.55;3451381;83;98900;-90
2022/03/09 15:49:17;;;;;;;18.30;8.80;;;;;;;7.84;55.16;101483.31;3476201;83;98647;-87
2022/03/09 15:54:18;;;;;;;21.70;9.57;;;;;;;7.69;55.20;101490.73;3460559;83;98457;-87
2022/03/09 15:59:19;;;;;;;22.47;8.93;;;;;;;7.59;55.21;101488.96;3465272;83;98656;-88
2022/03/09 16:04:21;;;;;;;18.27;9.13;;;;;;;7.47;55.94;101493.77;3436096;83;99159;-89
2022/03/09 16:09:22;;;;;;;20.10;9.50;;;;;;;7.38;56.26;101499.88;3460321;83;98707;-89
2022/03/09 16:14:23;;;;;;;23.63;12.23;;;;;;;7.31;57.19;101499.56;3454064;83;98510;-87
2022/03/09 16:19:26;;;;;;;23.13;12.40;;;;;;;7.20;56.89;101513.38;3581470;80;97920;-88
2022/03/09 16:24:28;;;;;;;23.93;9.20;;;;;;;7.07;57.10;101513.59;3483960;83;97598;-87
2022/03/09 16:29:29;;;;;;;22.43;9.73;;;;;;;6.93;57.10;101513.79;3488842;83;97499;-86
2022/03/09 16:34:30;;;;;;;22.27;11.13;;;;;;;6.78;56.85;101519.81;3481710;82;98472;-88
2022/03/09 16:39:32;;;;;;;23.63;11.17;;;;;;;6.65;57.13;101517.26;3502075;83;98274;-86
2022/03/09 16:44:33;;;;;;;30.63;14.27;;;;;;;6.49;57.16;101531.19;3484797;83;98845;-87
2022/03/09 16:49:34;;;;;;;26.20;11.60;;;;;;;6.37;57.74;101536.47;3488669;83;98006;-88
2022/03/09 16:54:35;;;;;;;20.57;10.37;;;;;;;6.20;58.00;101545.49;3464109;83;98452;-87
2022/03/09 16:59:48;;;;;;;21.83;10.40;;;;;;;6.06;58.88;101549.50;3485254;83;97747;-87
2022/03/09 17:04:50;;;;;;;23.10;12.00;;;;;;;5.91;59.28;101549.41;3460044;83;98929;-88
2022/03/09 17:10:22;;;;;;;;;;;;;;;;;;;;;
2022/03/09 17:15:20;;;;;;;22.85;11.45;;;;;;;5.59;60.54;101566.70;3466106;81;98858;-90
2022/03/09 17:20:38;;;;;;;25.57;11.00;;;;;;;5.41;61.22;101567.77;3434437;83;99516;-88
2022/03/09 17:26:12;;;;;;;;;;;;;;;;;;;;;
2022/03/09 17:31:17;;;;;;;26.07;11.47;;;;;;;5.00;62.67;101589.04;3442608;83;99410;-89
2022/03/09 17:36:20;;;;;;;23.33;9.90;;;;;;;4.86;63.30;101591.05;3482368;83;98716;-88
2022/03/09 17:41:28;;;;;;;23.30;10.17;;;;;;;4.69;63.88;101597.17;3465193;83;98602;-88
2022/03/09 17:46:32;;;;;;;26.30;13.53;;;;;;;4.52;64.56;101599.77;3427699;83;98922;-89
2022/03/09 17:51:34;;;;;;;29.70;14.13;;;;;;;4.34;65.25;101602.64;3511532;79;98979;-88
2022/03/09 17:56:38;;;;;;;28.47;12.03;;;;;;;4.21;66.01;101600.20;3469230;83;98884;-87
2022/03/09 18:01:45;;;;;;;29.03;13.03;;;;;;;4.10;66.31;101605.63;3441132;83;98816;-87
2022/03/09 18:06:46;;;;;;;29.18;14.87;;;;;;;3.90;66.99;101612.87;3428251;84;98708;-87
2022/03/09 18:11:51;;;;;;;33.07;15.00;;;;;;;3.74;67.92;101618.92;3430134;82;99155;-88
2022/03/09 18:17:00;;;;;;;39.73;15.80;;;;;;;3.59;68.47;101615.12;3405111;83;98801;-89
2022/03/09 18:22:08;;;;;;;32.98;14.50;;;;;;;3.46;69.22;101628.18;3470093;82;99585;-89
2022/03/09 18:27:10;;;;;;;33.07;14.97;;;;;;;3.38;69.74;101634.33;3454535;82;99361;-87
2022/03/09 18:33:25;;;;;;;35.23;14.83;;;;;;;3.30;70.16;101636.36;3447467;82;98506;-88
2022/03/09 18:38:31;;;;;;;35.57;15.27;;;;;;;3.22;70.51;101628.91;3451031;83;33356;-88
2022/03/09 18:43:32;;;;;;;33.50;15.43;;;;;;;3.09;70.83;101631.84;3416623;83;99336;-90
2022/03/09 18:48:44;;;;;;;34.03;16.47;;;;;;;2.99;71.03;101640.70;3485988;82;99208;-89
2022/03/09 18:53:46;;;;;;;40.67;17.70;;;;;;;2.84;71.62;101643.13;3498176;82;98910;-88
2022/03/09 18:58:47;;;;;;;50.43;20.70;;;;;;;2.76;71.86;101643.80;3494644;82;98960;-89
2022/03/09 19:03:49;;;;;;;53.53;21.63;;;;;;;2.67;72.20;101644.77;3505870;82;99077;-87
2022/03/09 19:08:50;;;;;;;64.47;26.50;;;;;;;2.55;72.72;101641.13;3511091;82;98875;-88
2022/03/09 19:13:55;;;;;;;54.73;23.30;;;;;;;2.44;73.18;101649.71;3501747;82;98436;-89
2022/03/09 19:18:56;;;;;;;44.00;19.63;;;;;;;2.37;73.47;101651.99;3508958;82;98769;-86
2022/03/09 19:23:57;;;;;;;44.47;20.40;;;;;;;2.34;73.64;101653.92;3490971;82;98931;-87
2022/03/09 19:28:57;;;;;;;51.13;23.10;;;;;;;2.39;74.02;101660.65;3499696;82;98839;-89
2022/03/09 19:34:39;;;;;;;55.87;25.67;;;;;;;2.38;74.26;101663.11;3476608;82;98436;-88
2022/03/09 19:39:42;;;;;;;63.40;26.83;;;;;;;2.30;74.59;101660.50;3507239;82;26802;-88
2022/03/09 19:44:48;;;;;;;58.40;26.37;;;;;;;2.18;74.40;101662.83;3503104;82;98434;-89
2022/03/09 19:49:51;;;;;;;60.90;27.82;;;;;;;2.08;74.81;101673.82;3514634;82;97870;-89
2022/03/09 19:54:54;;;;;;;57.93;26.67;;;;;;;1.95;75.28;101679.97;3509132;82;98856;-89
2022/03/09 19:59:55;;;;;;;54.60;25.83;;;;;;;1.81;75.54;101685.81;3464805;83;98902;-90
2022/03/09 20:04:57;;;;;;;57.93;25.37;;;;;;;1.69;75.98;101692.19;3427431;83;97985;-90
2022/03/09 20:10:00;;;;;;;47.60;23.10;;;;;;;1.63;76.33;101695.23;3511440;81;99118;-88
2022/03/09 20:15:01;;;;;;;49.90;23.17;;;;;;;1.52;76.59;101700.50;3454501;83;25923;-88
2022/03/09 20:20:03;;;;;;;40.90;19.60;;;;;;;1.40;76.84;101698.19;3436855;83;98754;-87
2022/03/09 20:25:05;;;;;;;42.37;20.80;;;;;;;1.30;77.48;101713.19;3452486;83;98860;-88
2022/03/09 20:30:27;;;;;;;48.70;23.83;;;;;;;1.18;78.23;101718.17;3460739;83;98802;-88
2022/03/09 20:35:29;;;;;;;55.90;26.23;;;;;;;1.06;78.94;101726.41;3417908;84;99035;-88
2022/03/09 20:40:30;;;;;;;62.27;27.17;;;;;;;0.96;79.51;101730.00;3459760;82;99214;-87
2022/03/09 20:45:31;;;;;;;77.53;30.63;;;;;;;0.88;79.75;101727.88;3450946;83;33283;-88
2022/03/09 20:50:33;;;;;;;86.63;33.73;;;;;;;0.83;80.73;101728.47;3441911;83;98838;-89
2022/03/09 20:55:37;;;;;;;66.40;28.47;;;;;;;0.80;81.23;101731.19;3468396;83;98674;-89
2022/03/09 21:00:39;;;;;;;48.05;19.75;;;;;;;0.78;82.28;101733.91;3446876;82;98824;-85
2022/03/09 21:05:47;;;;;;;40.27;19.17;;;;;;;0.80;82.77;101742.03;3482988;82;98813;-88
2022/03/09 21:10:48;;;;;;;33.67;15.40;;;;;;;0.92;84.08;101749.80;3458233;83;99130;-89
2022/03/09 21:15:51;;;;;;;42.33;18.00;;;;;;;1.04;84.08;101757.84;3486548;83;33203;-90
2022/03/09 21:20:53;;;;;;;40.70;16.77;;;;;;;1.14;84.41;101756.43;3451612;83;99003;-88
2022/03/09 21:25:54;;;;;;;41.40;18.87;;;;;;;1.24;84.36;101767.20;3473349;83;98796;-89
2022/03/09 21:30:55;;;;;;;44.63;18.73;;;;;;;1.32;84.06;101770.66;3465175;83;98992;-88
2022/03/09 21:41:22;;;;;;;47.83;19.80;;;;;;;1.38;84.18;101776.87;3437893;83;99017;-88
2022/03/09 21:46:23;;;;;;;42.03;18.53;;;;;;;1.43;84.16;101776.83;3464666;83;97995;-88
2022/03/09 21:51:24;;;;;;;43.87;21.17;;;;;;;1.42;84.52;101777.92;3484800;82;99103;-89
2022/03/09 21:56:28;;;;;;;47.47;21.03;;;;;;;1.38;84.46;101774.94;3489073;82;97980;-89
2022/03/09 22:02:13;;;;;;;49.18;20.92;;;;;;;1.39;84.23;101776.59;3481438;82;98824;-87
2022/03/09 22:07:15;;;;;;;51.75;22.17;;;;;;;1.38;84.68;101785.80;3482348;82;98974;-87
2022/03/09 22:12:16;;;;;;;47.43;21.93;;;;;;;1.37;84.73;101782.03;3478715;82;99152;-89
2022/03/09 22:17:17;;;;;;;51.77;21.93;;;;;;;1.34;85.08;101779.34;3474461;82;98893;-87
2022/03/09 22:22:18;;;;;;;43.93;20.10;;;;;;;1.32;85.27;101783.42;3483331;82;33228;-89
2022/03/09 22:27:40;;;;;;;45.47;19.67;;;;;;;1.32;85.64;101796.42;3491072;82;98496;-89
2022/03/09 22:32:42;;;;;;;46.40;20.50;;;;;;;1.31;86.45;101798.08;3474799;82;98805;-88
2022/03/09 22:37:43;;;;;;;47.00;20.20;;;;;;;1.36;86.76;101796.13;3480846;82;98748;-89
2022/03/09 22:42:47;;;;;;;52.53;21.07;;;;;;;1.38;86.60;101801.28;3480067;82;98894;-90
2022/03/09 22:47:47;;;;;;;48.63;21.07;;;;;;;1.41;87.09;101802.05;3489171;82;99297;-89
2022/03/09 22:52:48;;;;;;;54.50;20.20;;;;;;;1.40;87.09;101806.69;3485933;82;99337;-88
2022/03/09 22:58:13;;;;;;;47.30;19.40;;;;;;;1.40;87.51;101809.93;3471676;82;34397;-90
2022/03/09 23:03:14;;;;;;;45.60;20.20;;;;;;;1.39;87.65;101815.09;3426496;83;98882;-89
2022/03/09 23:08:19;;;;;;;46.17;17.40;;;;;;;1.24;88.53;101824.69;3471956;83;98873;-89
2022/03/09 23:13:20;;;;;;;40.12;17.65;;;;;;;1.24;88.53;101824.69;3448981;83;98937;-88
2022/03/09 23:18:21;;;;;;;43.03;19.20;;;;;;;1.32;88.40;101840.37;3451771;83;98869;-89
2022/03/09 23:23:22;;;;;;;46.30;19.53;;;;;;;1.30;88.59;101842.01;3483333;82;98946;-88